Time;durP1;ratioP1;P1;durP2;ratioP2;P2;SDS_P1;SDS_P2;PMS_P1;PMS_P2;Temp;Humidity;BMP_temperature;BMP_pressure;BME280_temperature;BME280_humidity;BME280_pressure;Samples;Min_cycle;Max_cycle;Signal;HPM_P1;HPM_P2
2022/07/19 00:02:23;;;;;;;8.43;6.00;;;18.30;99.90;;;;;;4939759;28;88423;-32
2022/07/19 00:04:49;;;;;;;8.10;6.78;;;18.30;99.90;;;;;;4939539;28;89261;-31
2022/07/19 00:07:14;;;;;;;11.30;6.15;;;18.20;99.90;;;;;;4939222;28;89705;-34
2022/07/19 00:09:40;;;;;;;6.78;6.07;;;18.20;99.90;;;;;;4986671;23;89756;-35
2022/07/19 00:12:06;;;;;;;7.05;6.40;;;18.10;99.90;;;;;;4958863;28;89405;-34
2022/07/19 00:14:31;;;;;;;6.75;6.15;;;18.10;99.90;;;;;;4958698;28;90228;-34
2022/07/19 00:16:57;;;;;;;9.00;6.63;;;18.10;99.90;;;;;;4961491;28;90083;-31
2022/07/19 00:19:23;;;;;;;7.20;5.88;;;18.00;99.90;;;;;;4961833;28;89468;-32
2022/07/19 00:21:48;;;;;;;6.20;5.60;;;18.00;99.90;;;;;;4961733;28;88736;-32
2022/07/19 00:24:14;;;;;;;10.02;7.15;;;18.00;99.90;;;;;;4962377;28;90086;-32
2022/07/19 00:26:40;;;;;;;9.23;6.05;;;18.00;99.90;;;;;;4961799;28;89660;-35
2022/07/19 00:29:05;;;;;;;7.28;6.20;;;18.00;99.90;;;;;;4961601;28;90110;-34
2022/07/19 00:31:31;;;;;;;7.00;6.40;;;18.00;99.90;;;;;;4962039;28;88838;-30
2022/07/19 00:33:57;;;;;;;9.35;6.53;;;18.10;99.90;;;;;;4961817;28;90193;-36
2022/07/19 00:36:22;;;;;;;12.27;7.95;;;18.10;99.90;;;;;;4962053;28;90622;-32
2022/07/19 00:38:48;;;;;;;8.63;7.82;;;18.10;99.90;;;;;;4961431;28;89343;-32
2022/07/19 00:41:15;;;;;;;10.10;7.25;;;18.20;99.90;;;;;;4962138;28;89232;-34
2022/07/19 00:43:42;;;;;;;10.18;6.97;;;18.10;99.90;;;;;;4961421;28;90389;-34
2022/07/19 00:46:15;;;;;;;8.05;6.97;;;18.10;99.90;;;;;;4960942;28;89553;-33
2022/07/19 00:48:42;;;;;;;17.73;6.95;;;18.10;99.90;;;;;;4962183;28;91960;-31
2022/07/19 00:51:12;;;;;;;13.93;7.22;;;18.00;99.90;;;;;;4961621;28;88333;-33
2022/07/19 00:53:39;;;;;;;8.23;6.80;;;18.00;99.90;;;;;;4961462;28;90308;-33
2022/07/19 00:56:06;;;;;;;7.30;6.60;;;18.00;99.90;;;;;;4960841;28;90171;-36
2022/07/19 00:58:33;;;;;;;9.55;8.13;;;18.00;99.90;;;;;;4962005;28;91355;-35
2022/07/19 01:01:00;;;;;;;9.57;8.63;;;18.00;99.90;;;;;;4961577;28;90343;-32
2022/07/19 01:03:26;;;;;;;9.20;8.15;;;18.10;99.90;;;;;;4960930;28;90442;-32
2022/07/19 01:05:52;;;;;;;10.63;8.35;;;18.10;99.90;;;;;;4959856;28;90181;-32
2022/07/19 01:08:18;;;;;;;10.45;9.07;;;18.20;99.90;;;;;;4961064;28;89565;-31
2022/07/19 01:10:44;;;;;;;13.88;9.75;;;18.20;99.90;;;;;;4960472;28;88882;-35
2022/07/19 01:13:12;;;;;;;12.25;9.52;;;18.20;99.90;;;;;;4961735;28;90470;-33
2022/07/19 01:15:40;;;;;;;9.90;8.20;;;18.20;99.90;;;;;;4961858;28;89430;-31
2022/07/19 01:18:06;;;;;;;10.05;8.27;;;18.20;99.90;;;;;;4960323;28;89567;-34
2022/07/19 01:20:32;;;;;;;10.10;8.38;;;18.20;99.90;;;;;;4961561;28;89617;-34
2022/07/19 01:22:58;;;;;;;8.38;7.68;;;18.30;99.90;;;;;;4961751;28;90335;-33
2022/07/19 01:25:25;;;;;;;10.75;7.90;;;18.30;99.90;;;;;;4960988;28;90024;-32
2022/07/19 01:27:51;;;;;;;9.20;8.00;;;18.20;99.90;;;;;;4960088;28;89353;-32
2022/07/19 01:30:22;;;;;;;8.88;7.97;;;18.20;99.90;;;;;;4960529;28;89239;-32
2022/07/19 01:32:49;;;;;;;8.77;7.88;;;18.20;99.90;;;;;;4960828;28;90086;-34
2022/07/19 01:35:15;;;;;;;9.93;8.93;;;18.20;99.90;;;;;;4960117;28;89492;-34
2022/07/19 01:37:42;;;;;;;9.00;7.70;;;18.20;99.90;;;;;;4961102;28;90829;-34
2022/07/19 01:40:10;;;;;;;15.93;8.85;;;18.20;99.90;;;;;;4960551;28;88469;-34
2022/07/19 01:42:35;;;;;;;9.55;7.82;;;18.20;99.90;;;;;;4960908;28;90359;-33
2022/07/19 01:45:01;;;;;;;7.40;6.70;;;18.20;99.90;;;;;;4960383;28;89897;-32
2022/07/19 01:47:27;;;;;;;9.90;8.80;;;18.20;99.90;;;;;;4960795;28;89141;-32
2022/07/19 01:49:52;;;;;;;10.10;7.97;;;18.20;99.90;;;;;;4960714;28;88599;-35
2022/07/19 01:52:19;;;;;;;7.78;7.10;;;18.20;99.90;;;;;;4960481;28;89784;-30
2022/07/19 01:54:44;;;;;;;8.63;7.55;;;18.20;99.90;;;;;;4960545;28;89772;-33
2022/07/19 01:57:10;;;;;;;9.90;7.70;;;18.10;99.90;;;;;;4960092;28;89542;-33
2022/07/19 01:59:36;;;;;;;6.80;6.30;;;18.10;99.90;;;;;;4961385;28;88727;-33
2022/07/19 02:02:03;;;;;;;9.60;8.13;;;18.10;99.90;;;;;;4960197;28;90718;-32
2022/07/19 02:04:28;;;;;;;10.95;8.32;;;18.10;99.90;;;;;;4960232;28;90323;-34
2022/07/19 02:06:54;;;;;;;10.07;8.35;;;18.00;99.90;;;;;;4961499;28;90575;-31
2022/07/19 02:09:20;;;;;;;11.32;8.73;;;18.00;99.90;;;;;;4959710;28;88635;-31
2022/07/19 02:11:45;;;;;;;9.40;8.48;;;18.00;99.90;;;;;;4960684;28;90321;-34
2022/07/19 02:14:11;;;;;;;9.70;8.70;;;18.00;99.90;;;;;;4959201;28;90751;-34
2022/07/19 02:16:38;;;;;;;8.77;7.97;;;18.00;99.90;;;;;;4960552;28;90602;-32
2022/07/19 02:19:04;;;;;;;10.05;8.70;;;17.90;99.90;;;;;;4960314;28;89155;-31
2022/07/19 02:21:30;;;;;;;11.25;8.32;;;17.90;99.90;;;;;;4960320;28;90372;-31
2022/07/19 02:23:56;;;;;;;9.43;8.50;;;17.90;99.90;;;;;;4960691;28;89558;-33
2022/07/19 02:26:22;;;;;;;9.70;8.95;;;17.90;99.90;;;;;;4959593;28;89416;-32
2022/07/19 02:28:48;;;;;;;11.45;9.15;;;17.80;99.90;;;;;;4960749;28;88051;-33
2022/07/19 02:31:13;;;;;;;9.85;8.95;;;17.80;99.90;;;;;;4960630;28;90382;-31
2022/07/19 02:33:39;;;;;;;12.23;8.48;;;17.80;99.90;;;;;;4959556;28;90510;-33
2022/07/19 02:36:05;;;;;;;11.05;10.05;;;17.70;99.90;;;;;;4960000;28;90181;-31
2022/07/19 02:38:31;;;;;;;13.13;11.80;;;17.70;99.90;;;;;;4957514;28;90452;-32
2022/07/19 02:40:56;;;;;;;11.38;10.27;;;17.70;99.90;;;;;;4959380;28;90630;-35
2022/07/19 02:43:22;;;;;;;15.60;10.10;;;17.70;99.90;;;;;;4959502;28;90460;-32
2022/07/19 02:45:48;;;;;;;16.17;10.98;;;17.80;99.90;;;;;;4958962;28;89297;-32
2022/07/19 02:48:13;;;;;;;14.07;11.18;;;17.80;99.90;;;;;;4959692;28;89378;-31
2022/07/19 02:50:39;;;;;;;10.57;9.55;;;17.90;99.90;;;;;;4959189;28;90619;-34
2022/07/19 02:53:04;;;;;;;10.90;9.80;;;17.90;99.90;;;;;;4959920;28;89834;-34
2022/07/19 02:55:31;;;;;;;10.88;9.85;;;18.00;99.90;;;;;;4960032;28;91071;-33
2022/07/19 02:57:56;;;;;;;12.07;9.48;;;18.00;99.90;;;;;;4959844;28;88875;-33
2022/07/19 03:00:22;;;;;;;11.05;10.05;;;18.00;99.90;;;;;;4959329;28;89307;-32
2022/07/19 03:02:48;;;;;;;12.50;10.32;;;18.00;99.90;;;;;;4958831;28;90593;-30
2022/07/19 03:05:13;;;;;;;10.48;9.38;;;18.00;99.90;;;;;;4959508;28;89575;-30
2022/07/19 03:07:39;;;;;;;12.27;10.07;;;18.00;99.90;;;;;;4959644;28;89248;-30
2022/07/19 03:10:05;;;;;;;257.85;40.28;;;18.00;99.90;;;;;;4958207;28;90350;-34
2022/07/19 03:12:31;;;;;;;244.43;41.05;;;18.00;99.90;;;;;;4959422;28;89763;-31
2022/07/19 03:14:57;;;;;;;50.33;16.23;;;18.00;99.90;;;;;;4958504;28;89811;-32
2022/07/19 03:17:23;;;;;;;47.10;10.85;;;18.00;99.90;;;;;;4959365;28;89498;-35
2022/07/19 03:19:49;;;;;;;10.65;9.50;;;18.00;99.90;;;;;;4958836;28;91562;-33
2022/07/19 03:22:14;;;;;;;13.15;9.27;;;18.00;99.90;;;;;;4957050;28;90261;-32
2022/07/19 03:24:40;;;;;;;11.23;9.57;;;17.90;99.90;;;;;;4960042;28;90516;-35
2022/07/19 03:27:05;;;;;;;15.93;10.43;;;18.00;99.90;;;;;;4958883;28;90675;-31
2022/07/19 03:29:31;;;;;;;14.77;9.25;;;17.90;99.90;;;;;;4959307;28;89083;-34
2022/07/19 03:31:57;;;;;;;20.33;10.85;;;17.90;99.90;;;;;;4958937;28;90000;-30
2022/07/19 03:34:23;;;;;;;12.68;9.88;;;17.90;99.90;;;;;;4958314;28;89276;-31
2022/07/19 03:36:48;;;;;;;11.82;8.98;;;17.90;99.90;;;;;;4959486;28;89065;-33
2022/07/19 03:39:14;;;;;;;9.90;8.90;;;18.00;99.90;;;;;;4959336;28;90523;-32
2022/07/19 03:41:39;;;;;;;9.10;8.15;;;18.00;99.90;;;;;;4959753;28;89889;-31
2022/07/19 03:44:05;;;;;;;10.48;8.77;;;18.00;99.90;;;;;;4958835;28;89341;-32
2022/07/19 03:46:30;;;;;;;14.30;10.38;;;17.90;99.90;;;;;;4959432;28;88086;-32
2022/07/19 03:48:57;;;;;;;8.68;7.78;;;18.00;99.90;;;;;;4958347;28;89859;-35
2022/07/19 03:51:23;;;;;;;9.50;8.57;;;18.00;99.90;;;;;;4961781;28;90690;-35
2022/07/19 03:53:49;;;;;;;15.50;8.98;;;18.00;99.90;;;;;;4963220;28;91233;-31
2022/07/19 03:56:15;;;;;;;10.20;9.20;;;18.00;99.90;;;;;;4961974;28;87544;-32
2022/07/19 03:58:40;;;;;;;12.00;9.95;;;18.10;99.90;;;;;;4962517;28;90712;-32
2022/07/19 04:01:06;;;;;;;9.90;8.82;;;18.20;99.90;;;;;;4967085;28;89604;-32
2022/07/19 04:03:39;;;;;;;9.75;8.55;;;18.20;99.90;;;;;;4972031;28;89747;-32
2022/07/19 04:06:06;;;;;;;10.70;9.18;;;18.20;99.90;;;;;;4973005;28;87739;-30
2022/07/19 04:08:32;;;;;;;13.13;9.70;;;18.20;99.90;;;;;;4972481;28;90194;-33
2022/07/19 04:10:58;;;;;;;17.10;9.02;;;18.20;99.90;;;;;;4971532;28;90110;-32
2022/07/19 04:13:23;;;;;;;13.52;9.63;;;18.30;99.90;;;;;;4969603;28;89427;-32
2022/07/19 04:15:49;;;;;;;10.00;8.65;;;18.30;99.90;;;;;;4971011;28;90195;-31
2022/07/19 04:18:15;;;;;;;12.23;8.95;;;18.30;99.90;;;;;;4971137;28;89925;-32
2022/07/19 04:20:40;;;;;;;11.02;9.65;;;18.30;99.90;;;;;;4971555;28;89798;-35
2022/07/19 04:23:06;;;;;;;12.38;9.88;;;18.40;99.90;;;;;;4963979;28;89305;-33
2022/07/19 04:25:31;;;;;;;11.65;9.50;;;18.40;99.90;;;;;;4961679;28;89219;-34
2022/07/19 04:27:57;;;;;;;11.32;10.30;;;18.50;99.90;;;;;;4962263;28;90447;-31
2022/07/19 04:30:23;;;;;;;10.57;8.88;;;18.50;99.90;;;;;;4961189;28;89752;-31
2022/07/19 04:32:48;;;;;;;11.13;9.05;;;18.50;99.90;;;;;;4962198;28;89643;-32
2022/07/19 04:35:15;;;;;;;10.40;9.27;;;18.60;99.90;;;;;;4961560;28;89484;-32
2022/07/19 04:37:41;;;;;;;10.10;9.13;;;18.60;99.90;;;;;;4961476;28;90441;-32
2022/07/19 04:40:08;;;;;;;14.57;10.23;;;18.60;99.90;;;;;;4961251;28;90387;-34
2022/07/19 04:42:33;;;;;;;13.93;11.55;;;18.60;99.90;;;;;;4961136;28;90118;-35
2022/07/19 04:44:59;;;;;;;14.27;9.95;;;18.60;99.90;;;;;;4961147;28;89337;-34
2022/07/19 04:47:25;;;;;;;75.85;17.58;;;18.50;99.90;;;;;;4961305;28;90411;-32
2022/07/19 04:49:50;;;;;;;36.28;14.02;;;18.40;99.90;;;;;;4960320;28;89456;-34
2022/07/19 04:52:16;;;;;;;14.38;10.38;;;18.40;99.90;;;;;;4960768;28;89589;-33
2022/07/19 04:54:42;;;;;;;11.65;9.95;;;18.40;99.90;;;;;;4961278;28;90646;-32
2022/07/19 04:57:07;;;;;;;12.20;9.43;;;18.40;99.90;;;;;;4960804;28;89334;-33
2022/07/19 04:59:33;;;;;;;17.15;10.13;;;18.60;99.90;;;;;;4961059;28;89850;-34
2022/07/19 05:01:58;;;;;;;11.30;10.02;;;18.70;99.90;;;;;;4959441;28;89072;-35
2022/07/19 05:04:24;;;;;;;15.05;10.63;;;18.80;99.90;;;;;;4960692;28;89976;-32
2022/07/19 05:06:56;;;;;;;11.27;10.20;;;19.00;99.90;;;;;;4960869;28;90313;-32
2022/07/19 05:09:22;;;;;;;11.02;9.95;;;19.10;99.90;;;;;;4959727;28;89593;-32
2022/07/19 05:11:48;;;;;;;11.63;10.63;;;19.30;99.90;;;;;;4960842;28;89510;-34
2022/07/19 05:14:13;;;;;;;11.88;10.70;;;19.50;99.90;;;;;;4960662;28;88785;-33
2022/07/19 05:16:39;;;;;;;10.80;9.77;;;19.70;99.90;;;;;;4960371;28;90041;-34
2022/07/19 05:19:05;;;;;;;10.85;9.75;;;19.90;99.90;;;;;;4961131;28;89836;-32
2022/07/19 05:21:30;;;;;;;45.90;12.80;;;20.00;99.90;;;;;;4960495;28;90099;-33
2022/07/19 05:23:56;;;;;;;39.55;13.35;;;20.20;99.90;;;;;;4960982;28;88501;-34
2022/07/19 05:26:21;;;;;;;12.65;10.45;;;20.40;99.90;;;;;;4959962;28;91013;-32
2022/07/19 05:28:47;;;;;;;15.23;11.30;;;20.40;99.90;;;;;;4960063;28;90256;-32
2022/07/19 05:31:13;;;;;;;13.88;11.50;;;20.50;99.90;;;;;;4960092;28;91497;-32
2022/07/19 05:33:38;;;;;;;16.60;11.55;;;20.60;99.90;;;;;;4959826;28;88097;-32
2022/07/19 05:36:04;;;;;;;13.05;11.10;;;20.60;99.90;;;;;;4959928;28;90237;-35
2022/07/19 05:38:34;;;;;;;11.05;10.10;;;20.70;99.90;;;;;;4959756;28;89749;-34
2022/07/19 05:41:00;;;;;;;17.10;9.68;;;20.80;99.90;;;;;;4959873;28;89546;-33
2022/07/19 05:43:26;;;;;;;13.02;11.65;;;20.90;99.90;;;;;;4961052;28;89543;-34
2022/07/19 05:45:51;;;;;;;12.25;10.68;;;21.00;99.90;;;;;;4960177;28;90147;-31
2022/07/19 05:48:17;;;;;;;12.82;10.70;;;21.10;99.90;;;;;;4959340;28;90420;-34
2022/07/19 05:50:42;;;;;;;15.23;10.23;;;21.20;99.90;;;;;;4960320;28;89918;-32
2022/07/19 05:53:08;;;;;;;21.60;10.38;;;21.40;99.90;;;;;;4959607;28;90192;-32
2022/07/19 05:55:34;;;;;;;10.77;9.73;;;21.50;99.90;;;;;;4960062;28;90092;-33
2022/07/19 05:57:59;;;;;;;12.10;10.90;;;21.60;99.90;;;;;;4960149;28;89844;-33
2022/07/19 06:00:25;;;;;;;11.70;10.50;;;21.70;99.90;;;;;;4959553;28;90664;-34
2022/07/19 06:02:50;;;;;;;12.40;10.15;;;21.80;99.90;;;;;;4966695;28;88474;-32
2022/07/19 06:05:17;;;;;;;34.08;13.35;;;22.00;99.90;;;;;;4968158;28;89007;-33
2022/07/19 06:07:42;;;;;;;15.20;10.38;;;22.00;99.90;;;;;;4968695;28;89801;-32
2022/07/19 06:10:09;;;;;;;13.55;10.73;;;22.10;99.90;;;;;;4962547;28;89462;-33
2022/07/19 06:12:34;;;;;;;13.75;10.60;;;22.20;99.90;;;;;;4959625;28;88094;-33
2022/07/19 06:15:00;;;;;;;13.18;10.57;;;22.30;99.90;;;;;;4959571;28;90487;-33
2022/07/19 06:17:26;;;;;;;26.40;12.65;;;22.40;99.90;;;;;;4958553;28;90419;-32
2022/07/19 06:19:51;;;;;;;16.30;12.00;;;22.50;99.90;;;;;;4945144;28;90763;-33
2022/07/19 06:22:17;;;;;;;12.95;11.43;;;22.60;99.90;;;;;;4947766;28;89741;-35
2022/07/19 06:24:42;;;;;;;12.18;10.98;;;22.80;99.90;;;;;;4939710;28;90173;-34
2022/07/19 06:27:08;;;;;;;11.70;10.65;;;22.90;99.90;;;;;;4938509;28;89817;-33
2022/07/19 06:29:33;;;;;;;12.38;11.20;;;23.10;99.90;;;;;;4947082;28;89872;-33
2022/07/19 06:31:59;;;;;;;15.60;11.15;;;23.10;99.90;;;;;;4952177;28;89920;-32
2022/07/19 06:34:24;;;;;;;15.18;11.13;;;23.20;99.90;;;;;;4959448;28;90117;-33
2022/07/19 06:36:50;;;;;;;12.10;10.55;;;23.40;99.90;;;;;;4947756;28;90288;-30
2022/07/19 06:39:16;;;;;;;12.57;10.93;;;23.50;99.90;;;;;;4952095;28;89511;-31
2022/07/19 06:41:41;;;;;;;14.35;10.15;;;23.60;99.90;;;;;;4940327;28;90520;-33
2022/07/19 06:44:07;;;;;;;11.48;10.38;;;23.70;99.90;;;;;;4941036;28;89847;-34
2022/07/19 06:46:32;;;;;;;11.07;9.82;;;23.80;99.90;;;;;;4941811;28;89676;-33
2022/07/19 06:48:58;;;;;;;11.57;10.45;;;23.90;99.90;;;;;;4943321;28;89813;-36
2022/07/19 06:51:24;;;;;;;12.82;10.02;;;24.20;99.90;;;;;;4954346;28;89162;-32
2022/07/19 06:53:49;;;;;;;10.15;9.07;;;24.30;99.90;;;;;;4955130;28;90110;-34
2022/07/19 06:56:15;;;;;;;10.07;8.98;;;24.50;99.90;;;;;;4952646;28;89988;-31
2022/07/19 06:58:40;;;;;;;33.72;12.07;;;24.70;99.90;;;;;;4956684;28;89930;-34
2022/07/19 07:01:06;;;;;;;14.10;7.45;;;24.90;99.90;;;;;;4951574;28;89394;-34
2022/07/19 07:03:32;;;;;;;9.98;9.00;;;25.00;99.90;;;;;;4921530;28;90144;-35
2022/07/19 07:05:57;;;;;;;12.13;9.70;;;25.10;99.90;;;;;;4958623;28;90940;-31
2022/07/19 07:08:23;;;;;;;9.43;8.52;;;25.20;99.90;;;;;;4959109;28;90421;-32
2022/07/19 07:10:48;;;;;;;9.98;8.98;;;25.30;99.90;;;;;;4959880;28;88521;-34
2022/07/19 07:13:14;;;;;;;9.13;8.20;;;25.50;99.90;;;;;;4958478;28;90263;-32
2022/07/19 07:15:42;;;;;;;8.05;7.22;;;25.50;99.90;;;;;;4959164;28;89837;-34
2022/07/19 07:18:08;;;;;;;13.13;7.15;;;25.60;99.90;;;;;;4958714;28;89309;-31
2022/07/19 07:20:34;;;;;;;10.05;8.65;;;25.80;99.90;;;;;;4959851;28;89519;-32
2022/07/19 07:23:01;;;;;;;8.60;7.63;;;26.00;99.90;;;;;;4959349;28;90209;-34
2022/07/19 07:25:26;;;;;;;8.03;7.00;;;26.10;99.90;;;;;;4959087;28;89744;-32
2022/07/19 07:27:52;;;;;;;9.27;7.38;;;26.30;99.90;;;;;;4957840;28;89588;-32
2022/07/19 07:30:17;;;;;;;10.35;8.38;;;26.50;99.90;;;;;;4958771;28;90018;-35
2022/07/19 07:32:43;;;;;;;9.43;6.68;;;26.60;99.90;;;;;;4958775;28;90030;-30
2022/07/19 07:35:09;;;;;;;7.63;6.72;;;26.70;99.90;;;;;;4957863;28;89909;-33
2022/07/19 07:37:34;;;;;;;10.63;7.30;;;26.90;99.90;;;;;;4956109;28;89563;-32
2022/07/19 07:40:00;;;;;;;7.47;6.78;;;27.10;99.90;;;;;;4956423;28;89252;-32
2022/07/19 07:42:25;;;;;;;9.07;6.43;;;27.20;99.90;;;;;;4956622;28;91508;-33
2022/07/19 07:44:52;;;;;;;6.68;6.07;;;27.40;99.90;;;;;;4956770;28;90031;-33
2022/07/19 07:47:17;;;;;;;41.33;12.25;;;27.60;99.90;;;;;;4956089;28;89950;-33
2022/07/19 07:49:43;;;;;;;8.55;6.90;;;27.80;99.90;;;;;;4954889;28;89600;-33
2022/07/19 07:52:08;;;;;;;7.65;6.90;;;27.90;99.90;;;;;;4953049;28;90153;-35
2022/07/19 07:54:35;;;;;;;7.57;6.70;;;28.00;99.90;;;;;;4951533;28;90868;-34
2022/07/19 07:57:00;;;;;;;6.47;5.57;;;28.10;99.90;;;;;;4955939;28;90572;-34
2022/07/19 07:59:26;;;;;;;6.65;6.00;;;28.20;99.90;;;;;;4956838;28;89199;-32
2022/07/19 08:01:52;;;;;;;7.00;6.38;;;28.40;99.30;;;;;;4955418;28;89617;-34
2022/07/19 08:04:17;;;;;;;7.00;5.97;;;28.50;96.30;;;;;;4956330;28;90302;-33
2022/07/19 08:06:43;;;;;;;10.13;5.65;;;28.50;96.00;;;;;;4955705;28;90948;-33
2022/07/19 08:09:09;;;;;;;7.65;5.97;;;28.60;96.80;;;;;;4946876;28;90822;-33
2022/07/19 08:11:34;;;;;;;7.63;6.75;;;28.80;96.10;;;;;;4951180;28;91600;-33
2022/07/19 08:14:00;;;;;;;7.18;5.32;;;29.00;91.20;;;;;;4954872;28;89155;-33
2022/07/19 08:16:26;;;;;;;13.55;6.25;;;29.00;92.50;;;;;;4956016;28;89510;-32
2022/07/19 08:18:52;;;;;;;9.45;6.28;;;29.00;95.80;;;;;;4952559;28;90628;-32
2022/07/19 08:21:17;;;;;;;7.32;6.03;;;29.20;94.40;;;;;;4955231;28;90364;-35
2022/07/19 08:23:43;;;;;;;6.50;5.90;;;29.40;92.40;;;;;;4955213;28;90487;-32
2022/07/19 08:26:09;;;;;;;28.40;6.72;;;29.50;94.30;;;;;;4955708;28;89841;-35
2022/07/19 08:28:35;;;;;;;8.98;5.45;;;29.70;90.90;;;;;;4955183;28;88510;-34
2022/07/19 08:31:00;;;;;;;5.88;4.63;;;29.80;87.80;;;;;;4954229;28;89121;-33
2022/07/19 08:33:26;;;;;;;5.25;4.75;;;30.00;83.90;;;;;;4955796;28;90347;-33
2022/07/19 08:35:52;;;;;;;6.57;4.88;;;30.10;81.70;;;;;;4956681;28;88913;-33
2022/07/19 08:38:17;;;;;;;8.95;5.80;;;30.30;80.20;;;;;;4944906;28;87765;-33
2022/07/19 08:40:43;;;;;;;5.13;4.28;;;30.30;75.70;;;;;;4959126;28;90979;-32
2022/07/19 08:43:10;;;;;;;8.88;5.53;;;30.30;75.80;;;;;;4958730;28;90350;-32
2022/07/19 08:45:41;;;;;;;4.78;4.38;;;30.30;74.20;;;;;;4959601;28;90327;-36
2022/07/19 08:48:07;;;;;;;14.15;4.47;;;30.40;70.50;;;;;;4959675;28;89910;-34
2022/07/19 08:50:33;;;;;;;4.57;4.03;;;30.50;72.50;;;;;;4959464;28;90266;-34
2022/07/19 08:53:01;;;;;;;5.27;4.50;;;30.70;69.70;;;;;;4958293;28;89725;-33
2022/07/19 08:55:27;;;;;;;4.75;4.35;;;30.80;68.20;;;;;;4959157;28;89762;-34
2022/07/19 08:58:01;;;;;;;4.75;4.18;;;31.00;67.40;;;;;;4959876;28;88819;-34
2022/07/19 09:00:29;;;;;;;7.30;4.30;;;31.00;67.10;;;;;;4959601;28;90256;-34
2022/07/19 09:03:00;;;;;;;4.80;4.40;;;31.00;66.70;;;;;;4958825;28;91229;-33
2022/07/19 09:05:26;;;;;;;5.22;4.72;;;31.00;66.70;;;;;;4959127;28;89191;-32
2022/07/19 09:08:07;;;;;;;6.97;4.30;;;31.00;66.70;;;;;;4958469;28;89081;-33
2022/07/19 09:10:34;;;;;;;6.43;4.22;;;31.20;67.00;;;;;;4958479;28;90644;-35
2022/07/19 09:13:09;;;;;;;7.10;4.28;;;31.30;66.10;;;;;;4958815;28;89525;-33
2022/07/19 09:15:45;;;;;;;4.07;3.72;;;31.40;64.90;;;;;;4958729;28;89307;-34
2022/07/19 09:18:17;;;;;;;4.00;3.60;;;31.50;64.70;;;;;;4958758;28;88584;-32
2022/07/19 09:20:44;;;;;;;4.35;3.90;;;31.70;65.30;;;;;;4958415;28;90310;-32
2022/07/19 09:23:10;;;;;;;6.47;3.78;;;31.70;62.20;;;;;;4958626;28;89860;-34
2022/07/19 09:25:50;;;;;;;4.93;3.80;;;31.70;61.40;;;;;;4959662;28;89541;-32
2022/07/19 09:28:18;;;;;;;5.00;4.53;;;31.90;61.90;;;;;;4958615;28;88784;-34
2022/07/19 09:30:46;;;;;;;9.73;4.63;;;32.00;60.20;;;;;;4958325;28;91190;-33
2022/07/19 09:33:15;;;;;;;8.98;3.72;;;32.10;60.30;;;;;;4957967;28;90718;-34
2022/07/19 09:35:42;;;;;;;3.38;3.08;;;32.30;59.10;;;;;;4958624;28;89837;-35
2022/07/19 09:38:28;;;;;;;5.65;3.50;;;32.50;58.60;;;;;;4958528;28;88217;-33
2022/07/19 09:41:10;;;;;;;3.97;3.55;;;32.50;58.10;;;;;;4958384;28;90399;-34
2022/07/19 09:43:48;;;;;;;5.22;3.38;;;32.70;59.00;;;;;;4957852;28;89859;-33
2022/07/19 09:46:32;;;;;;;4.30;3.72;;;32.80;58.50;;;;;;4958192;28;89194;-34
2022/07/19 09:49:06;;;;;;;4.63;3.47;;;32.90;58.40;;;;;;4958357;28;89594;-33
2022/07/19 09:51:35;;;;;;;7.72;3.30;;;33.00;57.10;;;;;;4958443;28;90330;-33
2022/07/19 09:54:03;;;;;;;6.57;4.15;;;33.10;56.80;;;;;;4957181;28;89488;-36
2022/07/19 09:56:29;;;;;;;7.68;4.05;;;33.20;55.90;;;;;;4957643;28;88675;-34
2022/07/19 09:58:57;;;;;;;7.00;3.70;;;33.30;56.00;;;;;;4957475;28;89174;-35
2022/07/19 10:01:23;;;;;;;5.28;3.38;;;33.30;54.60;;;;;;4962509;28;90323;-34
2022/07/19 10:03:50;;;;;;;5.43;3.63;;;33.30;55.10;;;;;;4963633;28;89486;-35
2022/07/19 10:06:16;;;;;;;;;;;33.30;52.80;;;;;;4958630;28;89818;-32
2022/07/19 10:08:42;;;;;;;4.35;3.83;;;33.30;54.10;;;;;;4959525;28;88257;-33
2022/07/19 10:11:07;;;;;;;7.32;5.10;;;33.30;52.50;;;;;;4962653;28;90287;-34
2022/07/19 10:13:33;;;;;;;3.72;3.42;;;33.30;53.90;;;;;;4967104;28;90375;-33
2022/07/19 10:16:03;;;;;;;4.75;3.03;;;33.20;52.60;;;;;;4963024;28;89619;-34
2022/07/19 10:18:36;;;;;;;4.22;3.75;;;33.30;52.90;;;;;;4961646;28;89304;-35
2022/07/19 10:21:02;;;;;;;4.15;3.53;;;33.30;53.00;;;;;;4960574;28;89341;-33
2022/07/19 10:23:29;;;;;;;4.38;3.97;;;33.30;51.70;;;;;;4963518;28;90554;-33
2022/07/19 10:25:55;;;;;;;6.45;3.40;;;33.40;51.70;;;;;;4969487;28;90540;-32
2022/07/19 10:28:35;;;;;;;3.25;3.03;;;33.60;51.20;;;;;;4971362;28;89236;-34
2022/07/19 10:31:01;;;;;;;5.63;3.58;;;33.60;51.00;;;;;;4969531;28;90511;-35
2022/07/19 10:33:37;;;;;;;4.85;3.65;;;33.70;50.60;;;;;;4970509;28;89892;-31
2022/07/19 10:36:55;;;;;;;4.28;3.20;;;33.70;48.60;;;;;;4969398;28;88402;-34
2022/07/19 10:39:34;;;;;;;3.85;3.45;;;33.70;49.10;;;;;;4930661;28;89378;-34
2022/07/19 10:42:07;;;;;;;4.97;3.63;;;33.70;49.10;;;;;;4969490;28;90538;-32
2022/07/19 10:44:33;;;;;;;3.92;3.38;;;33.70;48.10;;;;;;4958131;28;89526;-34
2022/07/19 10:46:59;;;;;;;7.03;3.88;;;33.70;48.20;;;;;;4969515;28;90730;-37
2022/07/19 10:49:45;;;;;;;5.90;4.07;;;33.70;48.90;;;;;;4967793;28;89071;-34
2022/07/19 10:52:29;;;;;;;3.93;3.63;;;33.80;49.30;;;;;;4961098;28;90401;-32
2022/07/19 10:57:50;;;;;;;10.85;3.95;;;33.70;49.00;;;;;;4962133;28;89475;-34
2022/07/19 11:00:30;;;;;;;4.82;4.38;;;33.90;47.70;;;;;;4970254;28;87874;-33
2022/07/19 11:03:20;;;;;;;6.38;3.60;;;33.80;47.80;;;;;;4970695;28;90110;-33
2022/07/19 11:06:04;;;;;;;3.40;3.10;;;33.90;48.50;;;;;;4970673;28;89534;-34
2022/07/19 11:08:37;;;;;;;4.38;3.58;;;34.10;48.30;;;;;;4963256;28;89866;-36
2022/07/19 11:11:11;;;;;;;5.90;3.38;;;34.10;47.20;;;;;;4957174;28;89025;-34
2022/07/19 11:13:39;;;;;;;4.32;3.92;;;34.10;47.70;;;;;;4964388;28;90016;-34
2022/07/19 11:16:05;;;;;;;4.50;3.15;;;34.00;48.00;;;;;;4970404;28;89592;-33
2022/07/19 11:18:32;;;;;;;3.93;3.67;;;34.00;46.80;;;;;;4971259;28;89212;-35
2022/07/19 11:21:00;;;;;;;8.00;3.58;;;34.10;46.20;;;;;;4971148;28;87953;-33
2022/07/19 11:23:29;;;;;;;4.65;3.13;;;34.00;46.80;;;;;;4971141;28;90107;-33
2022/07/19 11:26:06;;;;;;;4.80;3.63;;;34.10;46.30;;;;;;4969729;28;88387;-33
2022/07/19 11:28:31;;;;;;;5.03;3.08;;;34.10;46.00;;;;;;4964571;28;90127;-34
2022/07/19 11:30:57;;;;;;;4.18;3.67;;;34.10;45.80;;;;;;4960763;28;89307;-35
2022/07/19 11:33:22;;;;;;;3.88;3.17;;;34.20;46.00;;;;;;4959127;28;89067;-34
2022/07/19 11:35:59;;;;;;;3.53;3.22;;;34.20;45.80;;;;;;4961989;28;89729;-34
2022/07/19 11:38:45;;;;;;;5.03;3.63;;;34.20;44.00;;;;;;4964790;28;89426;-34
2022/07/19 11:41:18;;;;;;;3.20;2.75;;;34.20;45.40;;;;;;4958790;28;88480;-33
2022/07/19 11:43:53;;;;;;;5.07;3.22;;;34.20;44.50;;;;;;4970273;28;90083;-34
2022/07/19 11:46:24;;;;;;;3.85;2.33;;;34.30;43.30;;;;;;4969575;28;89875;-34
2022/07/19 11:48:56;;;;;;;4.53;2.97;;;34.30;43.20;;;;;;4967530;28;88310;-36
2022/07/19 11:51:22;;;;;;;3.53;3.05;;;34.30;43.70;;;;;;4962687;28;87895;-35
2022/07/19 11:53:51;;;;;;;3.38;3.08;;;34.40;43.00;;;;;;4961697;28;89038;-36
2022/07/19 11:56:22;;;;;;;3.55;2.42;;;34.40;42.10;;;;;;4956225;28;89487;-34
2022/07/19 11:58:50;;;;;;;2.88;2.45;;;34.40;42.50;;;;;;4957370;28;90017;-34
2022/07/19 12:01:27;;;;;;;3.38;3.08;;;34.40;42.50;;;;;;4958650;28;89791;-34
2022/07/19 12:04:00;;;;;;;7.00;3.60;;;34.50;43.20;;;;;;4959356;28;90207;-34
2022/07/19 12:06:49;;;;;;;3.17;2.97;;;34.60;42.20;;;;;;4956261;28;90885;-35
2022/07/19 12:09:19;;;;;;;4.60;2.78;;;34.60;42.50;;;;;;4996882;23;89600;-35
2022/07/19 12:11:48;;;;;;;3.53;3.03;;;34.60;41.90;;;;;;4959230;28;89373;-34
2022/07/19 12:14:37;;;;;;;2.80;2.28;;;34.60;41.90;;;;;;4979340;28;89850;-33
2022/07/19 12:17:20;;;;;;;2.85;2.65;;;34.60;43.40;;;;;;4979870;28;90296;-36
2022/07/19 12:19:52;;;;;;;2.55;2.35;;;34.60;42.40;;;;;;4978418;28;89546;-35
2022/07/19 12:22:30;;;;;;;2.70;2.50;;;34.70;41.10;;;;;;4978934;28;89212;-34
2022/07/19 12:24:55;;;;;;;;;;;34.70;41.80;;;;;;4979165;28;89574;-36
2022/07/19 12:27:22;;;;;;;4.00;2.45;;;34.70;41.60;;;;;;4980476;28;90040;-34
2022/07/19 12:29:49;;;;;;;3.87;2.93;;;34.80;41.80;;;;;;4979320;28;89572;-36
2022/07/19 12:32:15;;;;;;;;;;;34.80;42.00;;;;;;4979084;28;89975;-36
2022/07/19 12:34:56;;;;;;;4.63;2.43;;;34.80;41.30;;;;;;4980480;28;89347;-37
2022/07/19 12:37:42;;;;;;;8.02;2.35;;;34.80;41.70;;;;;;4978860;28;89655;-37
2022/07/19 12:40:09;;;;;;;2.57;2.37;;;34.80;41.90;;;;;;4978846;28;88475;-34
2022/07/19 12:42:41;;;;;;;2.45;2.30;;;34.80;39.90;;;;;;4979280;28;89847;-35
2022/07/19 12:45:08;;;;;;;6.65;2.55;;;34.70;39.80;;;;;;4979418;28;90457;-35
2022/07/19 12:47:34;;;;;;;2.75;2.35;;;34.70;40.60;;;;;;4979152;28;90330;-34